Time;durP1;ratioP1;P1;durP2;ratioP2;P2;SDS_P1;SDS_P2;PMS_P1;PMS_P2;Temp;Humidity;BMP_temperature;BMP_pressure;BME280_temperature;BME280_humidity;BME280_pressure;Samples;Min_cycle;Max_cycle;Signal;HPM_P1;HPM_P2
2024/03/08 00:01:06;;;;;;;30.33;20.27;;;2.90;1.00;;;;;;5092061;28;20228;-78
2024/03/08 00:03:33;;;;;;;26.25;19.48;;;2.90;1.00;;;;;;5098551;28;20255;-79
2024/03/08 00:06:00;;;;;;;23.10;17.48;;;2.90;1.00;;;;;;5096066;28;21660;-79
2024/03/08 00:08:30;;;;;;;23.38;18.27;;;3.00;1.00;;;;;;5096155;27;20309;-79
2024/03/08 00:10:59;;;;;;;27.95;20.02;;;3.00;1.00;;;;;;5094732;27;20220;-78
2024/03/08 00:13:26;;;;;;;22.40;19.67;;;2.90;1.00;;;;;;5092796;28;20236;-78
2024/03/08 00:15:57;;;;;;;27.17;19.08;;;2.90;1.00;;;;;;5093378;28;20649;-77
2024/03/08 00:18:24;;;;;;;24.63;19.10;;;2.90;1.00;;;;;;5095495;28;20235;-77
2024/03/08 00:20:51;;;;;;;25.05;20.15;;;2.80;1.00;;;;;;5084672;28;20274;-78
2024/03/08 00:23:18;;;;;;;26.58;20.00;;;2.80;1.00;;;;;;5101985;27;21032;-76
2024/03/08 00:25:45;;;;;;;28.50;19.80;;;2.90;1.00;;;;;;5092965;28;20269;-76
2024/03/08 00:28:16;;;;;;;28.65;19.70;;;2.80;1.00;;;;;;5094559;28;20285;-77
2024/03/08 00:30:43;;;;;;;28.45;18.90;;;2.80;1.00;;;;;;5091344;28;20235;-77
2024/03/08 00:33:11;;;;;;;24.80;19.00;;;2.80;1.00;;;;;;5100647;28;20231;-76
2024/03/08 00:35:41;;;;;;;26.65;19.73;;;2.80;1.00;;;;;;5095567;27;20236;-77
2024/03/08 00:38:08;;;;;;;25.33;18.88;;;2.90;1.00;;;;;;5107420;27;20258;-77
2024/03/08 00:40:35;;;;;;;29.65;19.98;;;2.90;1.00;;;;;;5090617;28;20248;-79
2024/03/08 00:43:03;;;;;;;25.88;18.55;;;2.80;1.00;;;;;;5094169;28;20262;-78
2024/03/08 00:45:36;;;;;;;26.17;19.90;;;2.80;1.00;;;;;;5095617;28;20294;-78
2024/03/08 00:48:05;;;;;;;27.20;19.52;;;2.90;1.00;;;;;;5092425;27;20334;-77
2024/03/08 00:50:33;;;;;;;25.40;18.33;;;2.80;1.00;;;;;;5097913;27;20723;-79
2024/03/08 00:53:00;;;;;;;28.45;19.88;;;2.80;1.00;;;;;;5091519;28;20986;-78
2024/03/08 00:55:29;;;;;;;25.05;18.40;;;2.80;1.00;;;;;;5091769;28;20246;-76
2024/03/08 00:57:56;;;;;;;29.45;20.05;;;2.80;1.00;;;;;;5091675;28;20240;-78
2024/03/08 01:00:25;;;;;;;26.45;20.35;;;2.70;1.00;;;;;;5087259;28;20244;-78
2024/03/08 01:02:54;;;;;;;29.67;20.92;;;2.70;1.00;;;;;;5089319;28;20810;-78
2024/03/08 01:05:21;;;;;;;26.42;20.13;;;2.60;1.00;;;;;;5092312;28;20449;-77
2024/03/08 01:07:49;;;;;;;26.33;18.98;;;2.60;1.00;;;;;;5092476;28;20239;-79
2024/03/08 01:10:18;;;;;;;25.13;20.63;;;2.60;1.00;;;;;;5090743;28;20571;-77
2024/03/08 01:12:45;;;;;;;27.35;20.80;;;2.60;1.00;;;;;;5089866;28;20251;-77
2024/03/08 01:15:12;;;;;;;31.08;21.13;;;2.50;1.00;;;;;;5091296;28;20243;-77
2024/03/08 01:17:39;;;;;;;28.95;18.77;;;2.60;1.00;;;;;;5091657;28;20297;-78
2024/03/08 01:20:10;;;;;;;27.45;20.45;;;2.50;1.00;;;;;;5090434;28;20310;-78
2024/03/08 01:22:37;;;;;;;31.15;19.75;;;2.40;1.00;;;;;;5091653;28;20274;-77
2024/03/08 01:25:05;;;;;;;27.25;20.73;;;2.40;1.00;;;;;;5090363;28;20240;-79
2024/03/08 01:27:33;;;;;;;31.80;21.20;;;2.40;1.00;;;;;;5091071;28;20267;-79
2024/03/08 01:30:00;;;;;;;28.13;21.45;;;2.40;1.00;;;;;;5090453;27;20236;-79
2024/03/08 01:32:27;;;;;;;28.55;21.42;;;2.40;1.00;;;;;;5090325;27;20246;-79
2024/03/08 01:34:54;;;;;;;25.02;19.42;;;2.40;1.00;;;;;;5091193;28;20286;-78
2024/03/08 01:37:23;;;;;;;27.80;19.90;;;2.30;1.00;;;;;;5087919;28;20251;-79
2024/03/08 01:39:50;;;;;;;30.25;20.85;;;2.30;1.00;;;;;;5091339;28;21030;-78
2024/03/08 01:42:17;;;;;;;26.90;19.52;;;2.20;1.00;;;;;;5090996;27;20240;-78
2024/03/08 01:44:44;;;;;;;29.10;21.85;;;2.20;1.00;;;;;;5088977;28;20699;-78
2024/03/08 01:47:12;;;;;;;30.80;21.80;;;2.20;1.00;;;;;;5099280;27;21178;-78
2024/03/08 01:49:39;;;;;;;26.50;21.27;;;2.20;1.00;;;;;;5093100;27;20285;-77
2024/03/08 01:52:06;;;;;;;27.85;20.13;;;2.20;1.00;;;;;;5090760;28;20239;-79
2024/03/08 01:54:36;;;;;;;30.67;20.17;;;2.20;1.00;;;;;;5092013;28;20251;-78
2024/03/08 01:57:03;;;;;;;31.10;21.40;;;2.10;1.00;;;;;;5087714;27;20815;-79
2024/03/08 01:59:30;;;;;;;27.98;22.15;;;2.10;1.00;;;;;;5089148;27;20240;-78
2024/03/08 02:02:03;;;;;;;27.83;19.00;;;2.00;1.00;;;;;;5091084;28;20235;-78
2024/03/08 02:04:31;;;;;;;27.25;19.67;;;2.00;1.00;;;;;;5099880;27;20269;-77
2024/03/08 02:06:59;;;;;;;35.38;22.63;;;2.00;1.00;;;;;;5100821;27;20242;-78
2024/03/08 02:09:26;;;;;;;29.30;19.08;;;2.00;1.00;;;;;;5106768;27;20239;-78
2024/03/08 02:11:55;;;;;;;27.45;20.55;;;2.00;1.00;;;;;;5099455;27;21043;-78
2024/03/08 02:14:22;;;;;;;30.52;20.58;;;1.90;1.00;;;;;;5096234;27;20322;-79
2024/03/08 02:16:51;;;;;;;28.58;20.80;;;2.00;1.00;;;;;;5088746;27;20773;-79
2024/03/08 02:19:19;;;;;;;28.25;21.55;;;2.00;1.00;;;;;;5089396;28;20263;-79
2024/03/08 02:21:48;;;;;;;27.17;19.88;;;2.00;1.00;;;;;;5089571;28;20739;-79
2024/03/08 02:24:16;;;;;;;25.23;20.35;;;2.00;1.00;;;;;;5089473;28;20240;-78
2024/03/08 02:26:43;;;;;;;34.03;20.08;;;2.00;1.00;;;;;;5090987;27;20323;-78
2024/03/08 02:29:14;;;;;;;26.52;20.30;;;1.90;1.00;;;;;;5098128;27;20325;-79
2024/03/08 02:31:42;;;;;;;26.95;19.33;;;1.90;1.00;;;;;;5086914;28;20235;-77
2024/03/08 02:34:09;;;;;;;27.75;19.90;;;1.90;1.00;;;;;;5097248;27;20246;-79
2024/03/08 02:36:36;;;;;;;30.15;20.85;;;1.90;1.00;;;;;;5089566;28;20327;-79
2024/03/08 02:39:06;;;;;;;30.67;21.30;;;1.90;1.00;;;;;;5076514;28;20288;-78
2024/03/08 02:41:33;;;;;;;27.17;20.55;;;1.90;1.00;;;;;;5088610;28;20236;-79
2024/03/08 02:44:01;;;;;;;25.50;19.60;;;1.80;1.00;;;;;;5097732;27;20267;-77
2024/03/08 02:46:28;;;;;;;25.48;19.50;;;1.90;1.00;;;;;;5089407;27;20793;-80
2024/03/08 02:48:55;;;;;;;26.85;19.83;;;1.90;1.00;;;;;;5090943;27;20232;-78
2024/03/08 02:51:22;;;;;;;29.38;20.88;;;2.00;1.00;;;;;;5090913;28;20267;-79
2024/03/08 02:53:51;;;;;;;27.30;21.65;;;2.00;1.00;;;;;;5089448;28;20247;-79
2024/03/08 02:56:21;;;;;;;26.92;19.02;;;2.10;1.00;;;;;;5090071;28;20240;-78
2024/03/08 02:58:51;;;;;;;32.92;22.10;;;2.20;1.00;;;;;;5090314;28;20231;-79
2024/03/08 03:01:20;;;;;;;29.70;20.95;;;2.20;1.00;;;;;;5088767;28;20326;-80
2024/03/08 03:03:47;;;;;;;29.70;22.02;;;2.20;1.00;;;;;;5088230;27;21274;-78
2024/03/08 03:06:15;;;;;;;31.20;22.50;;;2.10;1.00;;;;;;5089509;27;20705;-77
2024/03/08 03:08:44;;;;;;;30.48;21.85;;;2.00;1.00;;;;;;5088774;28;20248;-77
2024/03/08 03:11:11;;;;;;;24.88;20.40;;;2.00;1.00;;;;;;5087816;28;20250;-79
2024/03/08 03:13:39;;;;;;;30.48;22.45;;;1.90;1.00;;;;;;5086259;28;20232;-79
2024/03/08 03:16:07;;;;;;;30.52;20.95;;;1.90;1.00;;;;;;5089728;28;20232;-78
2024/03/08 03:18:37;;;;;;;24.90;20.13;;;1.90;1.00;;;;;;5089660;28;20817;-79
2024/03/08 03:21:07;;;;;;;28.83;21.13;;;1.80;1.00;;;;;;5096049;27;21006;-79
2024/03/08 03:23:34;;;;;;;31.52;21.77;;;1.70;1.00;;;;;;5092563;28;20228;-79
2024/03/08 03:26:02;;;;;;;30.42;22.15;;;1.70;1.00;;;;;;5093928;28;20256;-79
2024/03/08 03:28:29;;;;;;;29.85;21.58;;;1.70;1.00;;;;;;5109380;27;20282;-77
2024/03/08 03:30:58;;;;;;;31.00;22.83;;;1.60;1.00;;;;;;5113974;27;20240;-79
2024/03/08 03:33:25;;;;;;;30.73;23.50;;;1.60;1.00;;;;;;5115589;27;20262;-79
2024/03/08 03:35:52;;;;;;;32.80;22.23;;;1.60;1.00;;;;;;5112304;27;20299;-77
2024/03/08 03:38:23;;;;;;;33.42;24.67;;;1.50;1.00;;;;;;5079463;28;20228;-78
2024/03/08 03:40:52;;;;;;;29.73;22.98;;;1.50;1.00;;;;;;5102632;27;20240;-80
2024/03/08 03:43:19;;;;;;;31.35;23.02;;;1.50;1.00;;;;;;5097696;27;20235;-79
2024/03/08 03:45:46;;;;;;;33.13;24.65;;;1.50;1.00;;;;;;5115513;27;20733;-78
2024/03/08 03:48:14;;;;;;;32.17;22.88;;;1.50;1.00;;;;;;5113117;27;20235;-78
2024/03/08 03:50:44;;;;;;;32.03;22.92;;;1.40;1.00;;;;;;5118545;27;20268;-78
2024/03/08 03:53:13;;;;;;;31.33;23.55;;;1.40;1.00;;;;;;5114037;27;20346;-79
2024/03/08 03:55:40;;;;;;;32.38;23.35;;;1.40;1.00;;;;;;5114532;27;20249;-78
2024/03/08 03:58:07;;;;;;;30.52;22.33;;;1.40;1.00;;;;;;5098535;27;20239;-78
2024/03/08 04:00:34;;;;;;;33.83;24.65;;;1.40;1.00;;;;;;5091799;28;20339;-78
2024/03/08 04:03:01;;;;;;;33.53;23.90;;;1.40;1.00;;;;;;5094790;28;20240;-79
2024/03/08 04:05:29;;;;;;;31.60;24.45;;;1.40;1.00;;;;;;5102159;27;20288;-77
2024/03/08 04:07:56;;;;;;;42.05;24.40;;;1.40;1.00;;;;;;5112041;27;20250;-77
2024/03/08 04:10:23;;;;;;;33.17;23.88;;;1.40;1.00;;;;;;5112266;27;20291;-76
2024/03/08 04:12:50;;;;;;;37.15;28.23;;;1.40;1.00;;;;;;5114189;27;20239;-77
2024/03/08 04:15:20;;;;;;;31.90;23.23;;;1.40;1.00;;;;;;5118406;27;20683;-78
2024/03/08 04:17:48;;;;;;;37.42;25.17;;;1.40;1.00;;;;;;5109581;27;20301;-79
2024/03/08 04:20:17;;;;;;;34.38;23.80;;;1.30;1.00;;;;;;5092761;28;20243;-78
2024/03/08 04:22:46;;;;;;;31.58;23.73;;;1.30;1.00;;;;;;5092328;28;20235;-76
2024/03/08 04:25:15;;;;;;;34.88;25.58;;;1.30;1.00;;;;;;5092863;28;20244;-78
2024/03/08 04:27:42;;;;;;;34.88;25.35;;;1.30;1.00;;;;;;5092562;28;20259;-78
2024/03/08 04:30:10;;;;;;;36.33;25.70;;;1.30;1.00;;;;;;5089254;27;20298;-79
2024/03/08 04:32:38;;;;;;;30.98;23.80;;;1.30;1.00;;;;;;5096106;28;20368;-78
2024/03/08 04:35:05;;;;;;;33.03;23.90;;;1.20;1.00;;;;;;5113464;27;20228;-78
2024/03/08 04:37:32;;;;;;;34.20;25.23;;;1.20;1.00;;;;;;5107424;27;21566;-79
2024/03/08 04:40:01;;;;;;;36.05;24.10;;;1.00;1.00;;;;;;5094558;28;20745;-78
2024/03/08 04:42:29;;;;;;;38.15;26.55;;;1.10;1.00;;;;;;5091525;27;20235;-77
2024/03/08 04:44:57;;;;;;;31.02;24.23;;;1.10;1.00;;;;;;5093433;28;21082;-77
2024/03/08 04:47:24;;;;;;;32.20;24.17;;;1.00;1.00;;;;;;5092664;28;20244;-78
2024/03/08 04:49:53;;;;;;;33.65;25.48;;;1.10;1.00;;;;;;5094862;27;20718;-78
2024/03/08 04:52:20;;;;;;;35.50;24.95;;;1.10;1.00;;;;;;5114110;27;20288;-79
2024/03/08 04:54:47;;;;;;;35.40;24.55;;;1.00;1.00;;;;;;5108929;27;21175;-74
2024/03/08 04:57:18;;;;;;;39.63;26.05;;;1.00;1.00;;;;;;5108494;27;20267;-75
2024/03/08 04:59:45;;;;;;;35.63;26.13;;;0.90;1.00;;;;;;5081845;27;20247;-74
2024/03/08 05:02:14;;;;;;;36.85;26.60;;;0.90;1.00;;;;;;5112825;27;20288;-75
2024/03/08 05:04:42;;;;;;;34.35;25.40;;;0.80;1.00;;;;;;5091382;27;20260;-75
2024/03/08 05:07:09;;;;;;;32.88;23.40;;;0.80;1.00;;;;;;5096849;27;20242;-74
2024/03/08 05:09:37;;;;;;;36.20;26.33;;;0.80;1.00;;;;;;5109151;27;20243;-76
2024/03/08 05:12:05;;;;;;;39.47;27.13;;;0.70;1.00;;;;;;5093126;27;20239;-74
2024/03/08 05:14:34;;;;;;;34.63;25.27;;;0.70;1.00;;;;;;5109422;27;20246;-74
2024/03/08 05:17:02;;;;;;;34.92;25.55;;;0.70;1.00;;;;;;5110988;27;20227;-75
2024/03/08 05:19:30;;;;;;;40.15;25.88;;;0.70;1.00;;;;;;5094991;27;21005;-74
2024/03/08 05:21:57;;;;;;;34.60;24.35;;;0.70;1.00;;;;;;5089396;28;20712;-74
2024/03/08 05:24:24;;;;;;;37.95;25.60;;;0.70;1.00;;;;;;5090647;27;20239;-74
2024/03/08 05:26:51;;;;;;;35.78;24.70;;;0.70;1.00;;;;;;5091061;28;22016;-73
2024/03/08 05:29:18;;;;;;;35.72;25.98;;;0.60;1.00;;;;;;5091830;28;20309;-74
2024/03/08 05:31:50;;;;;;;35.15;24.40;;;0.60;1.00;;;;;;5090846;28;20247;-75
2024/03/08 05:34:19;;;;;;;42.67;28.15;;;0.60;1.00;;;;;;5087413;28;20250;-75
2024/03/08 05:36:46;;;;;;;36.70;26.80;;;0.60;1.00;;;;;;5088859;27;21070;-73
2024/03/08 05:39:14;;;;;;;39.58;27.20;;;0.60;1.00;;;;;;5091885;27;20232;-75
2024/03/08 05:41:41;;;;;;;36.08;26.77;;;0.60;1.00;;;;;;5090074;28;20251;-74
2024/03/08 05:44:08;;;;;;;40.97;26.77;;;0.50;1.00;;;;;;5098234;27;20975;-74
2024/03/08 05:46:35;;;;;;;37.25;27.77;;;0.50;1.00;;;;;;5092242;28;20305;-73
2024/03/08 05:49:05;;;;;;;34.15;27.35;;;0.60;1.00;;;;;;5091373;27;20305;-76
2024/03/08 05:51:34;;;;;;;37.80;26.48;;;0.60;1.00;;;;;;5110895;27;20330;-75
2024/03/08 05:54:02;;;;;;;33.90;25.60;;;0.60;1.00;;;;;;5100969;27;21129;-76
2024/03/08 05:56:29;;;;;;;40.33;26.98;;;0.60;1.00;;;;;;5108982;27;20608;-74
2024/03/08 05:58:57;;;;;;;35.47;28.17;;;0.70;1.00;;;;;;5108771;27;20337;-77
2024/03/08 06:01:24;;;;;;;36.55;27.98;;;0.60;1.00;;;;;;5111091;27;20263;-75
2024/03/08 06:03:53;;;;;;;42.00;29.00;;;0.70;1.00;;;;;;5109261;27;20245;-74
2024/03/08 06:06:25;;;;;;;39.42;28.85;;;0.70;1.00;;;;;;5112849;27;20302;-78
2024/03/08 06:08:52;;;;;;;40.10;28.77;;;0.70;1.00;;;;;;5105976;27;20850;-78
2024/03/08 06:11:21;;;;;;;39.92;28.45;;;0.70;1.00;;;;;;5088748;28;20317;-78
2024/03/08 06:13:49;;;;;;;41.53;27.67;;;0.70;1.00;;;;;;5090301;28;20731;-78
2024/03/08 06:16:16;;;;;;;41.22;28.00;;;0.80;1.00;;;;;;5085772;28;20232;-77
2024/03/08 06:18:43;;;;;;;39.65;27.15;;;0.80;1.00;;;;;;5106843;27;20306;-78
2024/03/08 06:21:11;;;;;;;41.92;28.17;;;0.80;1.00;;;;;;5111068;27;20322;-76
2024/03/08 06:23:41;;;;;;;36.83;26.52;;;0.80;1.00;;;;;;5108275;27;20267;-77
2024/03/08 06:26:09;;;;;;;42.05;28.45;;;0.80;1.00;;;;;;5110875;27;20707;-77
2024/03/08 06:28:36;;;;;;;45.15;30.02;;;0.90;1.00;;;;;;5110382;27;21117;-77
2024/03/08 06:31:03;;;;;;;44.60;30.27;;;1.00;1.00;;;;;;5109724;27;20235;-77
2024/03/08 06:33:32;;;;;;;40.88;30.95;;;1.10;1.00;;;;;;5107517;27;20288;-78
2024/03/08 06:35:59;;;;;;;38.90;30.00;;;1.10;1.00;;;;;;5108335;27;20245;-76
2024/03/08 06:38:27;;;;;;;41.35;28.38;;;1.20;1.00;;;;;;5106241;27;20254;-77
2024/03/08 06:40:55;;;;;;;41.92;29.33;;;1.20;1.00;;;;;;5106219;27;21084;-77
2024/03/08 06:43:24;;;;;;;39.92;27.75;;;1.20;1.00;;;;;;5111178;27;20301;-76
2024/03/08 06:45:52;;;;;;;35.83;27.63;;;1.30;1.00;;;;;;5088744;28;20629;-77
2024/03/08 06:48:20;;;;;;;40.50;28.38;;;1.40;1.00;;;;;;5108641;27;20885;-78
2024/03/08 06:50:47;;;;;;;34.33;27.55;;;1.40;1.00;;;;;;5091956;27;20332;-77
2024/03/08 06:53:14;;;;;;;39.08;27.77;;;1.50;1.00;;;;;;5101991;27;20239;-75
2024/03/08 06:55:42;;;;;;;36.70;26.95;;;1.60;1.00;;;;;;5094470;27;20390;-77
2024/03/08 06:58:11;;;;;;;43.83;28.73;;;1.70;1.00;;;;;;5092340;28;20684;-77
2024/03/08 07:00:39;;;;;;;38.63;27.75;;;1.80;1.00;;;;;;5099747;27;20241;-79
2024/03/08 07:03:12;;;;;;;37.65;25.52;;;1.90;1.00;;;;;;5107579;27;20292;-77
2024/03/08 07:05:40;;;;;;;32.78;26.27;;;2.00;1.00;;;;;;5108168;27;20262;-77
2024/03/08 07:08:07;;;;;;;35.60;27.45;;;2.10;1.00;;;;;;5108304;27;20714;-77
2024/03/08 07:10:38;;;;;;;34.70;26.15;;;2.10;1.00;;;;;;5108557;27;20864;-77
2024/03/08 07:13:05;;;;;;;34.58;26.25;;;2.20;1.00;;;;;;5103400;27;21223;-77
2024/03/08 07:15:35;;;;;;;37.38;26.77;;;2.30;1.00;;;;;;5090004;28;20231;-78
2024/03/08 07:18:02;;;;;;;33.85;26.38;;;2.50;1.00;;;;;;5088345;28;21028;-79
2024/03/08 07:20:29;;;;;;;31.90;25.20;;;2.60;1.00;;;;;;5098459;27;21033;-77
2024/03/08 07:22:56;;;;;;;40.45;28.35;;;2.70;1.00;;;;;;5106337;27;20285;-76
2024/03/08 07:25:24;;;;;;;39.05;27.95;;;2.70;1.00;;;;;;5110159;27;20232;-77
2024/03/08 07:27:52;;;;;;;34.40;26.20;;;2.80;1.00;;;;;;5112930;27;20238;-77
2024/03/08 07:33:02;;;;;;;43.50;27.35;;;3.10;1.00;;;;;;5108840;27;20292;-78
2024/03/08 07:35:29;;;;;;;34.50;26.23;;;3.20;1.00;;;;;;5109082;27;20263;-77
2024/03/08 07:37:59;;;;;;;35.03;26.90;;;3.20;1.00;;;;;;5108110;27;20239;-76
2024/03/08 07:40:27;;;;;;;34.38;24.98;;;3.20;1.00;;;;;;5110202;27;20235;-77
2024/03/08 07:42:56;;;;;;;30.88;23.83;;;3.30;1.00;;;;;;5096685;27;20232;-77
2024/03/08 07:45:25;;;;;;;34.00;25.55;;;3.40;1.00;;;;;;5088237;28;20245;-77
2024/03/08 07:47:53;;;;;;;35.83;23.73;;;3.60;1.00;;;;;;5087281;27;20309;-77
2024/03/08 07:50:22;;;;;;;33.63;26.63;;;3.70;1.00;;;;;;5090473;28;20263;-77
2024/03/08 07:52:50;;;;;;;28.70;24.20;;;3.80;1.00;;;;;;5102662;27;20231;-77
2024/03/08 07:55:17;;;;;;;32.67;24.23;;;3.90;1.00;;;;;;5085320;28;20236;-78
2024/03/08 07:57:44;;;;;;;32.78;23.48;;;4.00;1.00;;;;;;5088557;28;20267;-78
2024/03/08 08:00:17;;;;;;;33.38;25.27;;;4.10;1.00;;;;;;5086082;28;20259;-77
2024/03/08 08:02:45;;;;;;;33.22;25.05;;;4.30;1.00;;;;;;5086971;28;20232;-76
2024/03/08 08:05:13;;;;;;;36.17;25.52;;;4.40;1.00;;;;;;5089104;27;20229;-77
2024/03/08 08:07:45;;;;;;;33.35;25.55;;;4.50;1.00;;;;;;5090068;28;20232;-77
2024/03/08 08:10:18;;;;;;;34.45;25.25;;;4.50;1.00;;;;;;5090649;27;20289;-78
2024/03/08 08:12:51;;;;;;;32.15;24.42;;;4.60;1.00;;;;;;5090784;28;20240;-77
2024/03/08 08:15:19;;;;;;;31.65;23.73;;;4.70;1.00;;;;;;5092177;28;20240;-77
2024/03/08 08:17:47;;;;;;;32.30;24.55;;;4.80;1.00;;;;;;5089894;28;20259;-77
2024/03/08 08:20:15;;;;;;;33.15;25.40;;;5.00;1.00;;;;;;5092367;28;20240;-77
2024/03/08 08:22:45;;;;;;;29.13;22.98;;;5.20;1.00;;;;;;5089415;28;20640;-77
2024/03/08 08:25:15;;;;;;;31.42;23.85;;;5.30;1.00;;;;;;5092125;28;20327;-74
2024/03/08 08:27:43;;;;;;;31.58;26.02;;;5.40;1.00;;;;;;5091274;28;20240;-74
2024/03/08 08:30:16;;;;;;;33.80;24.00;;;5.40;1.00;;;;;;5091662;28;20250;-74
2024/03/08 08:32:46;;;;;;;29.88;23.80;;;5.50;1.00;;;;;;5094702;28;20292;-75
2024/03/08 08:35:13;;;;;;;33.42;24.00;;;5.60;1.00;;;;;;5091229;28;20315;-76
2024/03/08 08:37:41;;;;;;;30.08;22.27;;;5.70;1.00;;;;;;5091543;28;20259;-77
2024/03/08 08:40:14;;;;;;;31.05;24.92;;;5.80;1.00;;;;;;5092595;28;20240;-77
2024/03/08 08:42:42;;;;;;;28.98;24.27;;;5.90;1.00;;;;;;5089667;28;20317;-75
2024/03/08 08:45:10;;;;;;;28.63;24.13;;;6.00;1.00;;;;;;5091121;28;20232;-76
2024/03/08 08:47:38;;;;;;;29.38;23.52;;;6.10;1.00;;;;;;5091620;28;20244;-76
2024/03/08 08:50:06;;;;;;;30.02;22.17;;;6.30;1.00;;;;;;5088089;28;20737;-75
2024/03/08 08:52:35;;;;;;;32.63;23.77;;;6.30;1.00;;;;;;5093026;28;20244;-76
2024/03/08 08:55:03;;;;;;;28.83;23.27;;;6.50;1.00;;;;;;5094435;28;20248;-76
2024/03/08 08:57:40;;;;;;;30.13;22.92;;;6.80;1.00;;;;;;5096891;28;20238;-77
2024/03/08 09:00:14;;;;;;;27.75;22.83;;;7.20;1.00;;;;;;5095937;27;20243;-75
2024/03/08 09:02:41;;;;;;;28.90;23.87;;;7.80;1.00;;;;;;5092510;27;21085;-75
2024/03/08 09:05:14;;;;;;;30.67;25.10;;;8.70;1.00;;;;;;5091090;28;20466;-75
2024/03/08 09:07:42;;;;;;;29.77;23.87;;;9.00;1.00;;;;;;5110759;27;20481;-75
2024/03/08 09:10:12;;;;;;;30.97;23.80;;;10.10;1.00;;;;;;5097094;27;20463;-76
2024/03/08 09:12:41;;;;;;;31.37;22.17;;;11.30;1.00;;;;;;5090866;28;20465;-75
2024/03/08 09:15:11;;;;;;;26.40;22.70;;;12.40;1.00;;;;;;5091542;28;20625;-77
2024/03/08 09:17:40;;;;;;;24.00;21.50;;;13.30;1.00;;;;;;5091137;28;20566;-76
2024/03/08 09:20:08;;;;;;;26.07;22.97;;;14.10;1.00;;;;;;5091793;28;20577;-75
2024/03/08 09:22:35;;;;;;;26.87;23.47;;;14.30;1.00;;;;;;5089609;27;20543;-78
2024/03/08 09:25:05;;;;;;;22.83;20.33;;;14.00;1.00;;;;;;5098864;27;20543;-75
2024/03/08 09:27:36;;;;;;;24.60;21.93;;;14.00;1.00;;;;;;5094386;28;21239;-77
2024/03/08 09:30:07;;;;;;;23.40;21.10;;;14.30;1.00;;;;;;5092877;28;20544;-76
2024/03/08 09:32:36;;;;;;;26.00;22.07;;;14.80;1.00;;;;;;5092469;27;20456;-75
2024/03/08 09:35:07;;;;;;;27.50;22.73;;;14.80;1.00;;;;;;5097129;27;20513;-76
2024/03/08 09:37:34;;;;;;;27.43;23.13;;;14.90;1.00;;;;;;5112939;27;20657;-77
2024/03/08 09:40:09;;;;;;;24.17;20.93;;;14.70;1.00;;;;;;5115364;27;20449;-78
2024/03/08 09:42:38;;;;;;;26.57;22.83;;;15.20;1.00;;;;;;5102827;27;20430;-79
2024/03/08 09:45:10;;;;;;;26.50;23.57;;;15.70;1.00;;;;;;5110626;27;20944;-78
2024/03/08 09:47:40;;;;;;;26.30;22.40;;;15.30;1.00;;;;;;5109599;27;20484;-79
2024/03/08 09:50:09;;;;;;;26.70;21.77;;;15.50;1.00;;;;;;5114601;27;20449;-78
2024/03/08 09:52:39;;;;;;;25.83;23.00;;;15.60;1.00;;;;;;5109856;27;20872;-78
2024/03/08 09:55:08;;;;;;;24.10;21.53;;;15.00;1.00;;;;;;5111051;27;20469;-78
2024/03/08 09:57:38;;;;;;;26.00;20.57;;;14.60;1.00;;;;;;5108765;27;20515;-77
2024/03/08 10:00:18;;;;;;;23.50;21.00;;;14.60;1.00;;;;;;5111213;27;20464;-79
2024/03/08 10:02:46;;;;;;;22.63;20.20;;;14.30;1.00;;;;;;5108879;27;20544;-78
2024/03/08 10:05:14;;;;;;;23.93;19.50;;;14.00;1.00;;;;;;5111141;27;20464;-80
2024/03/08 10:07:41;;;;;;;24.23;19.77;;;14.30;1.00;;;;;;5112688;27;20529;-78
2024/03/08 10:10:11;;;;;;;22.67;19.63;;;14.50;1.00;;;;;;5105809;27;20534;-78
2024/03/08 10:12:39;;;;;;;23.00;20.50;;;14.40;1.00;;;;;;5108482;27;20460;-77
2024/03/08 10:15:16;;;;;;;23.30;20.80;;;14.30;1.00;;;;;;5109421;27;20469;-78
2024/03/08 10:17:44;;;;;;;29.07;21.83;;;14.20;1.00;;;;;;5107135;27;20569;-79
2024/03/08 10:20:15;;;;;;;22.13;19.30;;;13.70;1.00;;;;;;5092239;28;21932;-78
2024/03/08 10:22:46;;;;;;;22.83;20.30;;;13.40;1.00;;;;;;5100062;27;20465;-78
2024/03/08 10:25:20;;;;;;;24.30;20.07;;;13.20;1.00;;;;;;5108761;27;20463;-79
2024/03/08 10:27:47;;;;;;;25.23;20.23;;;13.60;1.00;;;;;;5109320;27;20532;-79
2024/03/08 10:30:19;;;;;;;21.43;19.07;;;14.00;1.00;;;;;;5111568;27;20463;-79
2024/03/08 10:32:48;;;;;;;22.90;19.10;;;14.10;1.00;;;;;;5111769;27;20586;-79
2024/03/08 10:35:18;;;;;;;20.57;18.30;;;15.00;1.00;;;;;;5106735;27;20468;-78
2024/03/08 10:37:48;;;;;;;20.20;16.50;;;15.50;1.00;;;;;;5098831;27;20976;-79
2024/03/08 10:40:18;;;;;;;18.77;16.97;;;15.40;1.00;;;;;;5090949;28;21018;-79
2024/03/08 10:42:54;;;;;;;18.60;16.77;;;15.60;1.00;;;;;;5099948;27;20983;-79
2024/03/08 10:45:32;;;;;;;19.43;17.50;;;15.70;1.00;;;;;;5101380;27;20424;-77
2024/03/08 10:48:11;;;;;;;20.20;18.07;;;16.20;1.00;;;;;;5091960;28;20485;-79
2024/03/08 10:50:39;;;;;;;19.70;17.77;;;17.20;1.00;;;;;;5089262;28;20494;-78
2024/03/08 10:53:08;;;;;;;20.67;17.60;;;18.30;1.00;;;;;;5092894;28;20487;-78
2024/03/08 10:55:40;;;;;;;21.03;18.17;;;18.80;1.00;;;;;;5090226;28;20490;-78
2024/03/08 10:58:09;;;;;;;19.47;17.53;;;17.50;1.00;;;;;;5093314;28;20474;-78
2024/03/08 11:00:37;;;;;;;21.53;17.20;;;17.10;1.00;;;;;;5090655;28;20463;-77
2024/03/08 11:03:05;;;;;;;23.03;18.23;;;16.90;1.00;;;;;;5090773;28;20476;-78
2024/03/08 11:05:38;;;;;;;20.97;18.73;;;16.80;1.00;;;;;;5090826;28;20542;-77
2024/03/08 11:08:07;;;;;;;21.43;19.23;;;17.00;1.00;;;;;;5092525;28;21845;-78
2024/03/08 11:10:35;;;;;;;19.40;17.40;;;17.80;1.00;;;;;;5091330;27;20511;-78
2024/03/08 11:13:03;;;;;;;21.40;18.47;;;18.30;1.00;;;;;;5085676;27;20463;-77
2024/03/08 11:15:31;;;;;;;21.80;19.40;;;18.70;1.00;;;;;;5111132;27;21044;-78
2024/03/08 11:18:02;;;;;;;23.57;19.20;;;19.20;1.00;;;;;;5092743;27;21033;-78
2024/03/08 11:20:32;;;;;;;19.80;17.77;;;20.30;1.00;;;;;;5095839;28;20457;-77
2024/03/08 11:23:02;;;;;;;19.37;17.37;;;21.20;1.00;;;;;;5112714;27;20453;-77
2024/03/08 11:25:36;;;;;;;20.10;18.00;;;21.10;1.00;;;;;;5095103;27;21001;-78
2024/03/08 11:28:16;;;;;;;19.43;17.43;;;22.30;1.00;;;;;;5108583;27;20492;-79
2024/03/08 11:30:45;;;;;;;20.63;18.43;;;22.80;1.00;;;;;;5092269;28;20468;-78
2024/03/08 11:33:15;;;;;;;20.30;18.20;;;22.60;1.00;;;;;;5090013;27;20502;-78
2024/03/08 11:35:46;;;;;;;21.23;19.00;;;21.30;1.00;;;;;;5091579;28;20461;-78
2024/03/08 11:38:16;;;;;;;20.23;18.10;;;21.30;1.00;;;;;;5093336;27;20476;-79
2024/03/08 11:40:49;;;;;;;19.27;17.27;;;22.30;1.00;;;;;;5100845;27;20889;-78
2024/03/08 11:43:17;;;;;;;20.13;18.07;;;23.50;1.00;;;;;;5096420;28;20456;-80
2024/03/08 11:45:45;;;;;;;19.07;17.27;;;24.30;1.00;;;;;;5104564;27;20458;-78
2024/03/08 11:48:14;;;;;;;20.30;18.30;;;24.90;1.00;;;;;;5093609;28;21170;-77
2024/03/08 11:50:43;;;;;;;19.40;17.60;;;24.70;1.00;;;;;;5093310;28;20461;-78
2024/03/08 11:53:13;;;;;;;18.63;16.83;;;24.80;1.00;;;;;;5096830;28;20465;-79
2024/03/08 11:55:42;;;;;;;18.30;16.70;;;24.90;1.00;;;;;;5098995;27;20458;-77
2024/03/08 11:58:10;;;;;;;19.23;17.33;;;25.00;1.00;;;;;;5095413;28;20535;-76
2024/03/08 12:00:38;;;;;;;21.33;19.13;;;24.80;1.00;;;;;;5092556;28;20494;-76
2024/03/08 12:03:09;;;;;;;21.47;19.37;;;24.00;1.00;;;;;;5093863;27;20825;-79
2024/03/08 12:05:38;;;;;;;21.10;18.83;;;24.40;1.00;;;;;;5092912;28;20466;-78
2024/03/08 12:08:07;;;;;;;21.13;19.00;;;23.90;1.00;;;;;;5094656;27;20474;-76
2024/03/08 12:10:35;;;;;;;19.90;17.93;;;23.60;1.00;;;;;;5095074;28;20458;-76
2024/03/08 12:13:03;;;;;;;19.77;17.80;;;23.50;1.00;;;;;;5095084;28;20465;-77
2024/03/08 12:15:34;;;;;;;20.23;18.23;;;24.20;1.00;;;;;;5101783;27;20450;-76
2024/03/08 12:18:01;;;;;;;19.63;17.70;;;23.90;1.00;;;;;;5113660;27;20527;-76
2024/03/08 12:20:30;;;;;;;19.67;17.63;;;23.40;1.00;;;;;;5112681;27;20869;-79
2024/03/08 12:23:00;;;;;;;20.10;18.10;;;23.30;1.00;;;;;;5112363;27;20586;-77
2024/03/08 12:25:31;;;;;;;20.70;18.60;;;23.90;1.00;;;;;;5117360;27;20409;-75
2024/03/08 12:28:10;;;;;;;21.97;19.80;;;24.20;1.00;;;;;;5114196;27;20469;-77
2024/03/08 12:30:46;;;;;;;20.80;18.60;;;24.60;1.00;;;;;;5102747;27;20457;-76
2024/03/08 12:33:14;;;;;;;19.43;17.43;;;25.50;1.00;;;;;;5095772;28;20462;-76
2024/03/08 12:35:42;;;;;;;19.13;17.23;;;25.60;1.00;;;;;;5094286;28;20991;-74
2024/03/08 12:38:10;;;;;;;19.73;17.70;;;25.30;1.00;;;;;;5094956;28;20985;-76
2024/03/08 12:40:41;;;;;;;19.50;17.70;;;24.80;1.00;;;;;;5093033;28;20556;-77
2024/03/08 12:43:09;;;;;;;20.93;18.70;;;23.40;1.00;;;;;;5084623;28;20454;-76
2024/03/08 12:45:36;;;;;;;21.13;19.03;;;22.70;1.00;;;;;;5108162;27;20516;-77
2024/03/08 12:48:15;;;;;;;20.73;18.77;;;23.60;1.00;;;;;;5112611;27;20552;-76
2024/03/08 12:50:43;;;;;;;21.27;19.17;;;24.70;1.00;;;;;;5111011;27;20555;-77
2024/03/08 12:53:13;;;;;;;19.30;17.60;;;24.80;1.00;;;;;;5093539;28;20498;-76